Time;durP1;ratioP1;P1;durP2;ratioP2;P2;SDS_P1;SDS_P2;PMS_P1;PMS_P2;Temp;Humidity;BMP_temperature;BMP_pressure;BME280_temperature;BME280_humidity;BME280_pressure;Samples;Min_cycle;Max_cycle;Signal;HPM_P1;HPM_P2
2023/05/20 00:00:52;;;;;;;10.18;5.00;;;10.70;97.10;;;;;;5075840;28;20020;-74
2023/05/20 00:03:19;;;;;;;7.35;4.20;;;10.70;96.90;;;;;;5091971;28;20085;-74
2023/05/20 00:05:45;;;;;;;7.22;4.43;;;10.80;97.10;;;;;;5083596;28;20296;-73
2023/05/20 00:08:10;;;;;;;11.27;4.93;;;10.80;96.80;;;;;;5081344;28;20035;-74
2023/05/20 00:10:36;;;;;;;13.20;5.32;;;10.80;97.10;;;;;;5083871;28;20024;-74
2023/05/20 00:13:02;;;;;;;8.98;5.00;;;10.80;97.20;;;;;;5083820;28;20104;-73
2023/05/20 00:15:28;;;;;;;12.13;4.65;;;10.80;98.00;;;;;;5088781;28;20047;-74
2023/05/20 00:17:54;;;;;;;8.60;4.22;;;10.70;98.00;;;;;;5085599;28;20024;-73
2023/05/20 00:20:20;;;;;;;8.38;4.25;;;10.80;97.80;;;;;;5083617;28;20032;-73
2023/05/20 00:22:45;;;;;;;8.05;4.25;;;10.80;97.00;;;;;;5066062;28;20029;-74
2023/05/20 00:25:13;;;;;;;7.28;4.15;;;10.80;96.10;;;;;;5079549;28;20101;-73
2023/05/20 00:27:39;;;;;;;9.45;4.88;;;10.80;95.90;;;;;;5080572;28;20024;-74
2023/05/20 00:30:06;;;;;;;6.30;4.00;;;10.80;95.80;;;;;;5080190;28;20028;-75
2023/05/20 00:32:31;;;;;;;7.40;4.15;;;10.80;95.60;;;;;;5084850;28;20020;-74
2023/05/20 00:34:58;;;;;;;8.10;4.57;;;10.80;95.20;;;;;;5079401;28;20035;-73
2023/05/20 00:37:24;;;;;;;5.55;3.53;;;10.70;94.90;;;;;;5072057;28;20059;-72
2023/05/20 00:39:50;;;;;;;7.80;3.92;;;10.80;94.90;;;;;;5082741;28;20448;-72
2023/05/20 00:42:22;;;;;;;8.65;4.50;;;10.80;95.00;;;;;;5087668;28;20130;-72
2023/05/20 00:44:48;;;;;;;7.75;4.43;;;10.80;95.70;;;;;;5076412;28;20317;-72
2023/05/20 00:47:16;;;;;;;10.27;4.75;;;10.70;95.50;;;;;;5092009;28;20036;-74
2023/05/20 00:49:45;;;;;;;7.78;4.60;;;10.70;94.80;;;;;;5093216;28;20024;-74
2023/05/20 00:52:12;;;;;;;8.48;4.07;;;10.70;94.60;;;;;;5089048;28;20028;-72
2023/05/20 00:54:39;;;;;;;7.68;4.10;;;10.70;94.50;;;;;;5090835;28;20084;-74
2023/05/20 00:57:06;;;;;;;8.70;4.40;;;10.60;94.20;;;;;;5092646;28;20032;-74
2023/05/20 00:59:34;;;;;;;8.50;4.35;;;10.60;93.90;;;;;;5094088;28;20027;-73
2023/05/20 01:02:00;;;;;;;9.15;4.70;;;10.70;93.70;;;;;;5062650;28;20158;-74
2023/05/20 01:04:26;;;;;;;7.68;4.88;;;10.70;93.60;;;;;;5081299;28;20036;-74
2023/05/20 01:06:51;;;;;;;10.13;3.95;;;10.60;94.10;;;;;;5083464;28;20035;-74
2023/05/20 01:09:17;;;;;;;10.68;4.28;;;10.60;94.10;;;;;;5086716;28;20111;-73
2023/05/20 01:12:01;;;;;;;8.80;4.45;;;10.50;94.30;;;;;;5066087;28;20048;-73
2023/05/20 01:14:32;;;;;;;7.80;4.53;;;10.50;93.80;;;;;;5082025;28;20032;-74
2023/05/20 01:17:01;;;;;;;12.50;5.20;;;10.50;93.20;;;;;;5085934;28;20035;-74
2023/05/20 01:19:34;;;;;;;8.73;5.10;;;10.50;94.40;;;;;;5082478;28;20028;-73
2023/05/20 01:22:02;;;;;;;9.23;4.77;;;10.50;95.90;;;;;;5083746;28;20020;-73
2023/05/20 01:24:27;;;;;;;9.63;5.05;;;10.40;95.90;;;;;;5079901;28;20035;-73
2023/05/20 01:26:56;;;;;;;11.93;5.25;;;10.40;95.60;;;;;;5084903;28;20032;-73
2023/05/20 01:29:22;;;;;;;10.40;5.35;;;10.40;95.80;;;;;;5081033;28;20426;-72
2023/05/20 01:31:50;;;;;;;9.73;5.85;;;10.30;96.50;;;;;;5086498;28;20330;-74
2023/05/20 01:34:16;;;;;;;11.80;6.07;;;10.30;96.40;;;;;;5082708;28;20035;-73
2023/05/20 01:36:44;;;;;;;11.95;6.00;;;10.30;97.00;;;;;;5084070;28;20048;-73
2023/05/20 01:39:10;;;;;;;11.43;5.60;;;10.30;97.00;;;;;;5080299;28;20036;-73
2023/05/20 01:41:36;;;;;;;10.50;6.05;;;10.30;97.00;;;;;;5080424;28;20313;-74
2023/05/20 01:44:02;;;;;;;11.63;5.78;;;10.30;97.00;;;;;;5085914;28;20035;-73
2023/05/20 01:46:33;;;;;;;11.40;5.78;;;10.30;96.90;;;;;;5087997;28;20034;-73
2023/05/20 01:48:58;;;;;;;12.18;6.05;;;10.40;97.00;;;;;;5084565;28;20023;-73
2023/05/20 01:51:24;;;;;;;10.70;6.57;;;10.40;97.30;;;;;;5083932;28;20095;-73
2023/05/20 01:53:49;;;;;;;10.88;6.45;;;10.40;97.70;;;;;;5065889;28;20020;-74
2023/05/20 01:56:15;;;;;;;11.27;6.75;;;10.50;97.90;;;;;;5085996;28;20078;-73
2023/05/20 01:58:40;;;;;;;13.43;7.35;;;10.50;98.00;;;;;;5076054;28;20028;-74
2023/05/20 02:01:06;;;;;;;14.07;7.05;;;10.50;98.00;;;;;;5086121;28;20036;-73
2023/05/20 02:03:32;;;;;;;11.20;6.38;;;10.50;98.00;;;;;;5094948;28;20028;-73
2023/05/20 02:05:57;;;;;;;11.90;6.95;;;10.50;97.80;;;;;;5075057;28;20028;-73
2023/05/20 02:08:23;;;;;;;12.23;6.20;;;10.50;98.00;;;;;;5089222;28;20318;-74
2023/05/20 02:10:48;;;;;;;9.27;5.95;;;10.50;98.00;;;;;;5084481;28;20306;-73
2023/05/20 02:13:14;;;;;;;10.38;5.63;;;10.50;98.00;;;;;;5087755;28;20055;-73
2023/05/20 02:15:42;;;;;;;10.85;6.53;;;10.50;98.00;;;;;;5094154;28;20024;-73
2023/05/20 02:18:08;;;;;;;10.68;6.10;;;10.50;97.60;;;;;;5069762;28;20036;-74
2023/05/20 02:20:37;;;;;;;12.10;6.22;;;10.40;97.30;;;;;;5099202;28;20031;-73
2023/05/20 02:23:04;;;;;;;10.55;6.20;;;10.40;97.20;;;;;;5097519;28;20032;-73
2023/05/20 02:25:31;;;;;;;12.60;7.35;;;10.40;97.00;;;;;;5085412;28;20020;-73
2023/05/20 02:27:56;;;;;;;14.93;7.78;;;10.40;97.30;;;;;;5088727;28;20559;-73
2023/05/20 02:30:22;;;;;;;16.23;8.00;;;10.40;98.00;;;;;;5084350;28;20103;-74
2023/05/20 02:32:48;;;;;;;11.50;7.47;;;10.40;98.00;;;;;;5087152;28;20020;-73
2023/05/20 02:35:13;;;;;;;13.50;7.65;;;10.40;97.50;;;;;;5093380;28;20051;-73
2023/05/20 02:37:39;;;;;;;13.30;8.30;;;10.40;97.80;;;;;;5082290;28;20209;-73
2023/05/20 02:40:05;;;;;;;13.05;7.35;;;10.40;98.00;;;;;;5067564;28;20028;-73
2023/05/20 02:42:31;;;;;;;14.30;7.72;;;10.40;97.80;;;;;;5082406;28;20025;-73
2023/05/20 02:44:57;;;;;;;11.63;7.70;;;10.50;97.80;;;;;;5083594;28;20040;-74
2023/05/20 02:47:24;;;;;;;15.65;7.53;;;10.50;97.80;;;;;;5083736;28;20020;-73
2023/05/20 02:49:50;;;;;;;10.93;6.72;;;10.50;97.90;;;;;;5069586;28;20085;-73
2023/05/20 02:52:15;;;;;;;9.57;6.93;;;10.40;97.60;;;;;;5090555;28;20055;-73
2023/05/20 02:54:41;;;;;;;11.00;6.60;;;10.40;97.60;;;;;;5089471;28;20029;-74
2023/05/20 02:57:06;;;;;;;9.35;6.85;;;10.40;97.20;;;;;;5087660;28;20111;-74
2023/05/20 02:59:32;;;;;;;10.85;6.68;;;10.40;96.30;;;;;;5084249;28;20028;-73
2023/05/20 03:01:57;;;;;;;9.88;6.05;;;10.30;96.00;;;;;;5084392;28;20036;-73
2023/05/20 03:04:24;;;;;;;13.10;6.65;;;10.30;95.80;;;;;;5085681;28;20324;-74
2023/05/20 03:06:50;;;;;;;13.73;7.28;;;10.30;95.80;;;;;;5083644;28;20094;-73
2023/05/20 03:09:17;;;;;;;10.57;6.78;;;10.20;95.50;;;;;;5081000;28;20417;-73
2023/05/20 03:11:43;;;;;;;10.38;7.10;;;10.10;95.30;;;;;;5083864;28;20066;-73
2023/05/20 03:14:08;;;;;;;12.65;7.43;;;10.00;94.90;;;;;;5085190;28;20305;-73
2023/05/20 03:16:34;;;;;;;11.15;7.85;;;9.90;94.70;;;;;;5088123;28;20798;-73
2023/05/20 03:19:00;;;;;;;13.88;8.20;;;9.80;94.00;;;;;;5084374;28;20458;-74
2023/05/20 03:21:26;;;;;;;12.68;9.15;;;9.70;93.20;;;;;;5083498;28;20055;-73
2023/05/20 03:23:51;;;;;;;11.02;7.38;;;9.60;92.30;;;;;;5087310;28;20367;-73
2023/05/20 03:26:17;;;;;;;14.50;6.90;;;9.60;91.90;;;;;;5077959;28;20028;-73
2023/05/20 03:28:42;;;;;;;13.30;7.88;;;9.60;91.80;;;;;;5093094;28;20089;-73
2023/05/20 03:31:08;;;;;;;10.75;6.93;;;9.60;91.90;;;;;;5091978;28;20075;-73
2023/05/20 03:33:34;;;;;;;8.80;6.28;;;9.60;91.70;;;;;;5083400;28;20029;-72
2023/05/20 03:36:00;;;;;;;11.13;7.45;;;9.60;91.10;;;;;;5082431;28;20044;-73
2023/05/20 03:38:26;;;;;;;11.18;7.05;;;9.60;90.70;;;;;;5082896;28;20024;-73
2023/05/20 03:40:51;;;;;;;12.57;7.15;;;9.60;90.40;;;;;;5083957;28;20032;-74
2023/05/20 03:43:17;;;;;;;11.95;7.70;;;9.60;90.50;;;;;;5083553;28;20078;-75
2023/05/20 03:45:42;;;;;;;10.77;7.05;;;9.60;90.90;;;;;;5075683;28;20731;-74
2023/05/20 03:48:08;;;;;;;12.15;6.82;;;9.60;90.40;;;;;;5080939;28;20052;-73
2023/05/20 03:50:34;;;;;;;11.35;6.28;;;9.70;89.90;;;;;;5093018;28;20032;-73
2023/05/20 03:52:59;;;;;;;13.15;7.30;;;9.70;89.90;;;;;;5067982;28;20024;-73
2023/05/20 03:55:25;;;;;;;9.98;6.38;;;9.70;90.10;;;;;;5089399;28;20451;-74
2023/05/20 03:57:50;;;;;;;13.05;8.00;;;9.80;90.10;;;;;;5078138;28;20127;-74
2023/05/20 04:00:17;;;;;;;13.88;7.55;;;9.80;91.80;;;;;;5078368;28;20056;-73
2023/05/20 04:02:43;;;;;;;12.82;8.88;;;9.90;93.00;;;;;;5095561;28;20481;-73
2023/05/20 04:05:09;;;;;;;21.80;15.95;;;9.90;93.30;;;;;;5081632;28;20024;-74
2023/05/20 04:07:35;;;;;;;21.35;14.25;;;10.00;93.30;;;;;;5081419;28;20028;-73
2023/05/20 04:10:04;;;;;;;21.48;15.23;;;10.10;93.50;;;;;;5086264;28;20470;-73
2023/05/20 04:12:34;;;;;;;18.33;13.70;;;10.20;93.50;;;;;;5064090;28;20151;-74
2023/05/20 04:15:03;;;;;;;20.83;14.82;;;10.20;93.30;;;;;;5082043;28;20024;-73
2023/05/20 04:17:30;;;;;;;21.83;14.68;;;10.20;92.90;;;;;;5082316;28;20020;-73
2023/05/20 04:19:58;;;;;;;18.20;13.75;;;10.30;93.80;;;;;;5082260;28;20154;-74
2023/05/20 04:22:25;;;;;;;17.65;13.10;;;10.30;93.40;;;;;;5082498;28;20294;-74
2023/05/20 04:24:50;;;;;;;19.65;13.77;;;10.30;93.10;;;;;;5066158;28;20119;-74
2023/05/20 04:27:16;;;;;;;19.17;12.73;;;10.30;93.60;;;;;;5082600;28;20107;-74
2023/05/20 04:29:44;;;;;;;14.52;11.88;;;10.40;93.50;;;;;;5083364;28;20056;-73
2023/05/20 04:32:16;;;;;;;14.88;11.55;;;10.40;93.50;;;;;;5079534;28;20020;-74
2023/05/20 04:34:41;;;;;;;17.23;12.77;;;10.50;93.20;;;;;;5082211;28;20024;-74
2023/05/20 04:37:08;;;;;;;13.35;11.65;;;10.60;93.80;;;;;;5080430;28;20372;-74
2023/05/20 04:39:33;;;;;;;16.17;10.85;;;10.70;94.40;;;;;;5081508;28;20032;-74
2023/05/20 04:42:02;;;;;;;14.32;10.32;;;10.70;94.80;;;;;;5085548;28;20428;-74
2023/05/20 04:44:28;;;;;;;13.07;10.77;;;10.70;94.80;;;;;;5083037;28;20034;-74
2023/05/20 04:46:55;;;;;;;13.75;11.40;;;10.80;95.00;;;;;;5080878;28;20047;-74
2023/05/20 04:49:20;;;;;;;15.45;12.55;;;10.80;95.40;;;;;;5078688;28;20184;-74
2023/05/20 04:51:48;;;;;;;16.00;11.45;;;10.80;95.60;;;;;;5091478;28;20056;-74
2023/05/20 04:54:16;;;;;;;17.55;12.75;;;10.80;95.40;;;;;;5076966;28;20043;-73
2023/05/20 04:56:43;;;;;;;14.73;10.45;;;10.70;95.30;;;;;;5081335;28;20071;-74
2023/05/20 04:59:09;;;;;;;14.35;10.63;;;10.70;94.20;;;;;;5068003;28;20096;-74
2023/05/20 05:01:35;;;;;;;16.27;11.40;;;10.70;94.10;;;;;;5070331;28;20027;-74
2023/05/20 05:04:01;;;;;;;13.85;11.38;;;10.70;94.40;;;;;;5089837;28;20363;-74
2023/05/20 05:06:27;;;;;;;15.93;11.23;;;10.70;94.40;;;;;;5091353;28;20035;-74
2023/05/20 05:08:52;;;;;;;14.45;11.15;;;10.80;95.10;;;;;;5073086;28;20028;-74
2023/05/20 05:11:18;;;;;;;17.92;11.82;;;10.80;94.80;;;;;;5084593;28;20024;-75
2023/05/20 05:13:43;;;;;;;15.50;10.85;;;10.80;94.90;;;;;;5079507;28;20028;-74
2023/05/20 05:16:09;;;;;;;14.93;11.60;;;10.80;94.80;;;;;;5090382;28;20024;-74
2023/05/20 05:18:35;;;;;;;15.48;11.07;;;10.80;94.90;;;;;;5069110;28;20024;-73
2023/05/20 05:21:05;;;;;;;14.30;10.18;;;10.80;94.80;;;;;;5086951;28;20050;-73
2023/05/20 05:23:32;;;;;;;15.10;11.13;;;10.80;94.80;;;;;;5087394;28;20028;-74
2023/05/20 05:25:57;;;;;;;16.48;11.07;;;10.90;94.90;;;;;;5086483;28;20425;-73
2023/05/20 05:28:23;;;;;;;11.95;9.55;;;11.00;95.50;;;;;;5068561;28;20034;-74
2023/05/20 05:30:49;;;;;;;13.05;9.75;;;11.10;95.90;;;;;;5083407;28;20073;-74
2023/05/20 05:33:15;;;;;;;14.45;10.43;;;11.30;96.90;;;;;;5068845;28;20039;-74
2023/05/20 05:35:41;;;;;;;12.30;8.88;;;11.30;96.80;;;;;;5086015;28;20036;-74
2023/05/20 05:38:07;;;;;;;13.10;9.93;;;11.40;96.50;;;;;;5087434;28;20162;-74
2023/05/20 05:40:33;;;;;;;16.27;10.07;;;11.50;97.20;;;;;;5092074;28;20063;-74
2023/05/20 05:42:58;;;;;;;12.38;9.05;;;11.60;98.00;;;;;;5093274;28;20070;-74
2023/05/20 05:45:24;;;;;;;12.68;8.93;;;11.60;98.00;;;;;;5090942;28;20712;-74
2023/05/20 05:47:50;;;;;;;11.13;7.90;;;11.60;97.20;;;;;;5087982;28;20336;-74
2023/05/20 05:50:15;;;;;;;12.52;8.82;;;11.90;98.00;;;;;;5095364;28;20020;-74
2023/05/20 05:52:41;;;;;;;11.90;9.05;;;11.90;98.00;;;;;;5093523;28;20055;-74
2023/05/20 05:55:08;;;;;;;12.85;8.30;;;12.00;98.00;;;;;;5085953;28;20109;-74
2023/05/20 05:57:34;;;;;;;11.65;8.60;;;12.00;98.00;;;;;;5095138;28;20028;-75
2023/05/20 05:59:59;;;;;;;12.60;7.65;;;12.20;98.00;;;;;;5080583;28;20427;-74
2023/05/20 06:02:26;;;;;;;12.23;8.68;;;12.30;98.00;;;;;;5082376;28;20115;-74
2023/05/20 06:04:51;;;;;;;13.23;8.57;;;12.70;98.00;;;;;;5085404;28;20413;-74
2023/05/20 06:07:17;;;;;;;10.57;7.30;;;12.80;98.00;;;;;;5077279;28;20115;-75
2023/05/20 06:09:43;;;;;;;12.93;8.50;;;13.20;98.00;;;;;;5074440;28;20029;-74
2023/05/20 06:12:09;;;;;;;10.20;6.93;;;13.40;98.00;;;;;;5088429;28;20031;-74
2023/05/20 06:14:34;;;;;;;10.75;7.53;;;13.40;98.00;;;;;;5083643;28;20016;-74
2023/05/20 06:17:01;;;;;;;12.07;8.25;;;13.30;98.00;;;;;;5081189;28;20094;-74
2023/05/20 06:19:29;;;;;;;9.85;7.25;;;13.50;98.00;;;;;;5076190;28;20036;-74
2023/05/20 06:21:57;;;;;;;10.15;6.97;;;13.80;98.00;;;;;;5075111;28;20051;-74
2023/05/20 06:24:22;;;;;;;13.20;8.07;;;14.00;98.00;;;;;;5056464;28;20432;-74
2023/05/20 06:26:51;;;;;;;12.38;6.63;;;14.00;97.40;;;;;;5080742;28;20044;-74
2023/05/20 06:29:17;;;;;;;11.95;8.20;;;13.80;97.70;;;;;;5086812;28;20048;-74
2023/05/20 06:31:42;;;;;;;10.45;7.53;;;13.90;97.90;;;;;;5066691;28;20054;-74
2023/05/20 06:34:11;;;;;;;12.25;8.30;;;13.80;97.60;;;;;;5089286;28;20119;-74
2023/05/20 06:36:36;;;;;;;10.82;7.28;;;13.60;98.00;;;;;;5085317;28;20044;-74
2023/05/20 06:39:03;;;;;;;11.50;7.80;;;13.70;98.00;;;;;;5083608;28;20031;-74
2023/05/20 06:41:28;;;;;;;12.43;8.02;;;13.90;97.90;;;;;;5084202;28;20051;-74
2023/05/20 06:43:54;;;;;;;11.00;6.75;;;14.30;97.90;;;;;;5087845;28;20056;-74
2023/05/20 06:46:19;;;;;;;11.35;7.15;;;14.80;96.80;;;;;;5089520;28;20024;-74
2023/05/20 06:48:45;;;;;;;10.57;7.57;;;14.70;96.00;;;;;;5089828;28;20031;-74
2023/05/20 06:51:10;;;;;;;10.95;7.07;;;14.50;95.90;;;;;;5084395;28;20032;-74
2023/05/20 06:53:39;;;;;;;10.52;7.53;;;14.20;96.70;;;;;;5082402;28;20155;-74
2023/05/20 06:56:04;;;;;;;9.98;7.07;;;14.20;97.20;;;;;;5091704;28;20028;-74
2023/05/20 06:58:30;;;;;;;12.55;7.95;;;14.30;97.30;;;;;;5088383;28;21593;-74
2023/05/20 07:00:55;;;;;;;11.98;7.53;;;14.40;96.90;;;;;;5071568;28;20421;-74
2023/05/20 07:03:22;;;;;;;9.85;6.85;;;14.70;96.70;;;;;;5089346;28;20434;-74
2023/05/20 07:05:49;;;;;;;12.23;7.05;;;15.20;95.50;;;;;;5079092;28;20029;-74
2023/05/20 07:08:15;;;;;;;10.63;6.97;;;15.40;94.80;;;;;;5083399;28;20111;-74
2023/05/20 07:10:40;;;;;;;11.70;7.28;;;15.40;94.80;;;;;;5091005;28;20437;-74
2023/05/20 07:13:06;;;;;;;13.30;7.28;;;15.40;94.60;;;;;;5098167;28;20367;-74
2023/05/20 07:15:32;;;;;;;10.30;6.43;;;15.20;95.30;;;;;;5096276;28;20052;-74
2023/05/20 07:17:58;;;;;;;10.07;6.75;;;15.20;94.90;;;;;;5105423;28;20022;-74
2023/05/20 07:20:23;;;;;;;10.63;7.28;;;15.40;94.60;;;;;;5081269;28;20024;-74
2023/05/20 07:22:49;;;;;;;9.30;7.10;;;15.40;94.60;;;;;;5091433;28;20036;-74
2023/05/20 07:25:15;;;;;;;10.32;7.38;;;15.60;94.10;;;;;;5087941;28;20039;-74
2023/05/20 07:27:41;;;;;;;11.45;7.18;;;15.70;94.30;;;;;;5079981;28;20313;-73
2023/05/20 07:30:08;;;;;;;10.90;7.13;;;15.60;94.50;;;;;;5085442;28;20069;-74
2023/05/20 07:32:34;;;;;;;12.52;7.88;;;15.70;93.90;;;;;;5089409;28;20076;-74
2023/05/20 07:35:00;;;;;;;10.52;7.50;;;15.60;94.60;;;;;;5075081;28;20056;-73
2023/05/20 07:37:25;;;;;;;12.05;7.32;;;15.80;93.80;;;;;;5081570;28;20052;-74
2023/05/20 07:39:51;;;;;;;9.73;7.18;;;15.60;94.00;;;;;;5063247;28;20027;-74
2023/05/20 07:42:16;;;;;;;13.52;7.93;;;16.20;93.70;;;;;;5087499;28;20032;-74
2023/05/20 07:44:42;;;;;;;14.05;8.40;;;16.30;93.00;;;;;;5090315;28;20431;-74
2023/05/20 07:47:08;;;;;;;14.50;7.80;;;16.50;91.70;;;;;;5091465;28;20039;-74
2023/05/20 07:49:34;;;;;;;10.70;7.30;;;16.30;92.20;;;;;;5084582;28;20038;-74
2023/05/20 07:51:59;;;;;;;19.83;9.57;;;16.60;92.50;;;;;;5067170;28;20577;-74
2023/05/20 07:54:25;;;;;;;13.27;7.38;;;16.70;91.70;;;;;;5083825;28;20029;-74
2023/05/20 07:56:51;;;;;;;10.45;7.63;;;17.00;91.70;;;;;;5067912;28;20376;-74
2023/05/20 07:59:16;;;;;;;14.20;7.32;;;17.70;89.30;;;;;;5087192;28;20107;-74
2023/05/20 08:01:42;;;;;;;10.25;7.57;;;18.40;87.50;;;;;;5084375;28;21548;-74
2023/05/20 08:04:08;;;;;;;9.10;6.80;;;17.50;88.00;;;;;;5091051;28;20031;-74
2023/05/20 08:06:34;;;;;;;12.43;7.93;;;17.10;89.70;;;;;;5094451;28;20032;-75
2023/05/20 08:09:00;;;;;;;10.88;7.43;;;17.40;90.20;;;;;;5084257;28;20029;-74
2023/05/20 08:11:26;;;;;;;12.15;8.50;;;17.20;89.70;;;;;;5065574;28;20024;-75
2023/05/20 08:13:52;;;;;;;9.80;7.32;;;17.00;90.80;;;;;;5087568;28;20035;-74
2023/05/20 08:16:17;;;;;;;17.27;7.90;;;17.20;91.00;;;;;;5086569;28;20031;-75
2023/05/20 08:18:43;;;;;;;10.23;8.15;;;17.00;90.30;;;;;;5082749;28;20020;-75
2023/05/20 08:21:08;;;;;;;11.93;7.65;;;16.80;91.60;;;;;;5088825;28;20035;-74
2023/05/20 08:23:35;;;;;;;12.35;7.68;;;16.90;91.10;;;;;;5087743;28;20081;-74
2023/05/20 08:26:04;;;;;;;11.40;8.02;;;16.50;92.20;;;;;;5083594;28;20724;-75
2023/05/20 08:28:30;;;;;;;13.23;7.40;;;16.80;91.70;;;;;;5085617;28;20020;-74
2023/05/20 08:30:56;;;;;;;14.00;7.88;;;17.00;91.10;;;;;;5094443;28;20444;-74
2023/05/20 08:33:22;;;;;;;12.90;7.70;;;17.00;91.10;;;;;;5087062;28;20031;-74
2023/05/20 08:35:48;;;;;;;13.88;7.72;;;17.40;91.10;;;;;;5089769;28;20332;-74
2023/05/20 08:38:14;;;;;;;13.43;8.70;;;17.30;89.90;;;;;;5083202;28;20120;-74
2023/05/20 08:40:39;;;;;;;11.90;8.52;;;16.90;91.70;;;;;;5085988;28;20020;-74
2023/05/20 08:43:05;;;;;;;10.23;7.68;;;17.10;91.20;;;;;;5070495;28;20038;-73
2023/05/20 08:45:32;;;;;;;11.15;7.70;;;17.10;91.20;;;;;;5075595;28;20319;-73
2023/05/20 08:47:59;;;;;;;11.60;6.80;;;17.20;91.10;;;;;;5087198;28;20024;-74
2023/05/20 08:50:24;;;;;;;15.10;8.82;;;17.80;90.00;;;;;;5086254;28;20024;-76
2023/05/20 08:52:50;;;;;;;13.90;7.00;;;18.30;87.20;;;;;;5086069;28;20031;-75
2023/05/20 08:55:34;;;;;;;12.98;8.50;;;18.60;86.80;;;;;;5064596;28;20034;-75
2023/05/20 08:58:02;;;;;;;9.75;6.75;;;19.60;84.60;;;;;;5087048;28;20421;-75
2023/05/20 09:00:28;;;;;;;11.82;7.63;;;19.60;84.40;;;;;;5091913;28;20020;-75
2023/05/20 09:02:55;;;;;;;10.05;7.72;;;19.80;83.30;;;;;;5065310;28;20089;-75
2023/05/20 09:05:21;;;;;;;12.45;7.93;;;19.00;84.20;;;;;;5059206;28;20115;-74
2023/05/20 09:07:47;;;;;;;11.13;8.32;;;18.60;86.60;;;;;;5065074;28;20034;-74
2023/05/20 09:10:13;;;;;;;11.60;8.27;;;18.20;86.10;;;;;;5084045;28;20330;-74
2023/05/20 09:12:39;;;;;;;40.47;17.70;;;18.30;87.80;;;;;;5080426;28;20744;-75
2023/05/20 09:15:05;;;;;;;11.00;7.80;;;18.80;86.50;;;;;;5077475;28;20032;-74
2023/05/20 09:17:33;;;;;;;11.65;7.40;;;19.80;85.20;;;;;;5092010;28;20320;-74
2023/05/20 09:19:59;;;;;;;14.88;7.55;;;21.40;81.80;;;;;;5091148;28;20050;-75
2023/05/20 09:22:27;;;;;;;9.82;6.75;;;22.80;76.20;;;;;;5071981;28;20421;-74
2023/05/20 09:24:53;;;;;;;12.43;6.32;;;21.30;77.50;;;;;;5087147;28;20032;-75
2023/05/20 09:27:20;;;;;;;8.93;6.53;;;21.20;80.00;;;;;;5090747;28;20054;-75
2023/05/20 09:29:50;;;;;;;14.32;9.13;;;21.80;77.20;;;;;;5093180;28;20420;-73
2023/05/20 09:32:16;;;;;;;9.27;6.13;;;22.10;77.00;;;;;;5090982;28;20032;-74
2023/05/20 09:34:44;;;;;;;8.85;6.35;;;22.20;75.70;;;;;;5094094;28;20316;-74
2023/05/20 09:37:10;;;;;;;8.45;6.28;;;21.90;75.70;;;;;;5082007;28;20045;-74
2023/05/20 09:39:47;;;;;;;9.13;7.32;;;21.60;77.30;;;;;;5078393;28;20032;-74
2023/05/20 09:42:21;;;;;;;9.40;6.65;;;21.90;78.10;;;;;;5085343;28;20035;-74
2023/05/20 09:44:48;;;;;;;9.65;7.28;;;21.10;78.20;;;;;;5093493;28;20023;-74
2023/05/20 09:47:15;;;;;;;12.02;7.70;;;19.90;80.90;;;;;;5082034;28;20047;-74
2023/05/20 09:49:42;;;;;;;9.68;6.93;;;18.60;84.80;;;;;;5066384;28;20024;-74
2023/05/20 09:52:08;;;;;;;10.30;7.20;;;18.50;85.10;;;;;;5085976;28;20020;-74
2023/05/20 09:54:35;;;;;;;10.00;6.93;;;18.70;86.30;;;;;;5082637;28;20024;-74
2023/05/20 09:57:02;;;;;;;9.23;6.70;;;19.00;83.80;;;;;;5090908;28;20019;-74
2023/05/20 09:59:30;;;;;;;9.48;7.00;;;18.80;83.60;;;;;;5084125;28;20028;-74
2023/05/20 10:01:55;;;;;;;10.45;7.15;;;19.20;85.10;;;;;;5094663;28;20052;-73
2023/05/20 10:04:23;;;;;;;9.65;6.07;;;19.30;83.70;;;;;;5085975;28;20067;-73
2023/05/20 10:06:48;;;;;;;13.10;7.20;;;19.50;83.50;;;;;;5075483;28;20028;-74
2023/05/20 10:09:49;;;;;;;10.02;7.00;;;20.00;82.20;;;;;;5083317;28;20793;-73
2023/05/20 10:12:54;;;;;;;8.13;6.57;;;20.40;81.60;;;;;;5090778;28;20064;-73
2023/05/20 10:15:45;;;;;;;9.45;6.40;;;20.70;80.30;;;;;;5091048;28;20054;-72
2023/05/20 10:18:37;;;;;;;9.07;6.00;;;21.00;78.60;;;;;;5089879;28;20316;-73
2023/05/20 10:21:17;;;;;;;11.20;6.43;;;21.10;78.80;;;;;;5070223;28;20028;-73
2023/05/20 10:23:43;;;;;;;10.10;6.55;;;21.30;77.40;;;;;;5083359;28;20103;-73
2023/05/20 10:26:09;;;;;;;7.70;5.78;;;21.60;77.20;;;;;;5089038;28;20052;-74
2023/05/20 10:28:36;;;;;;;8.63;6.28;;;21.90;77.30;;;;;;5093989;28;20056;-73
2023/05/20 10:31:14;;;;;;;9.73;6.15;;;22.10;74.40;;;;;;5091516;28;20337;-73
2023/05/20 10:33:44;;;;;;;8.75;6.80;;;21.60;77.00;;;;;;5090521;28;20024;-73
2023/05/20 10:36:20;;;;;;;8.63;6.32;;;22.00;76.20;;;;;;5087597;28;20131;-72
2023/05/20 10:38:57;;;;;;;9.13;6.38;;;21.90;75.50;;;;;;5106845;28;20032;-73
2023/05/20 10:41:28;;;;;;;9.88;6.32;;;21.50;78.40;;;;;;5084469;28;20028;-79
2023/05/20 10:44:01;;;;;;;11.32;6.70;;;21.60;79.20;;;;;;5082583;28;20339;-71
2023/05/20 10:46:27;;;;;;;8.80;6.90;;;21.40;78.00;;;;;;5089788;28;20031;-71
2023/05/20 10:48:52;;;;;;;9.63;6.43;;;21.10;77.50;;;;;;5090647;28;20109;-71
2023/05/20 10:51:20;;;;;;;9.05;6.07;;;20.90;79.80;;;;;;5101568;28;20047;-72
2023/05/20 10:53:46;;;;;;;8.38;6.32;;;21.60;78.70;;;;;;5087480;28;20028;-70
2023/05/20 10:56:22;;;;;;;9.52;5.90;;;21.30;77.10;;;;;;5095916;28;20024;-71
2023/05/20 10:58:49;;;;;;;7.78;5.82;;;21.20;79.90;;;;;;5091792;28;20313;-70
2023/05/20 11:01:15;;;;;;;8.43;5.93;;;21.40;78.70;;;;;;5090685;28;20024;-71
2023/05/20 11:03:43;;;;;;;8.13;5.32;;;21.60;79.20;;;;;;5099266;28;20085;-70
2023/05/20 11:06:13;;;;;;;8.18;6.10;;;22.00;79.70;;;;;;5086401;28;20388;-71
2023/05/20 11:08:39;;;;;;;12.30;6.15;;;22.90;75.30;;;;;;5079014;28;20115;-72
2023/05/20 11:11:05;;;;;;;7.55;5.78;;;23.00;75.20;;;;;;5079708;28;20119;-72
2023/05/20 11:13:31;;;;;;;8.02;6.00;;;22.80;76.20;;;;;;5095377;28;20046;-71
2023/05/20 11:16:00;;;;;;;8.35;5.93;;;23.10;74.00;;;;;;5080138;28;20029;-71
2023/05/20 11:18:30;;;;;;;7.85;6.13;;;23.50;73.80;;;;;;5078580;28;20028;-71
2023/05/20 11:20:56;;;;;;;8.75;5.97;;;23.90;72.40;;;;;;5078774;28;20029;-71
2023/05/20 11:23:22;;;;;;;10.65;5.85;;;24.30;70.90;;;;;;5078675;28;20040;-71
2023/05/20 11:25:55;;;;;;;8.48;5.70;;;23.50;72.50;;;;;;5077372;28;20025;-72
2023/05/20 11:28:21;;;;;;;8.00;5.72;;;23.20;74.50;;;;;;5083993;28;20039;-71
2023/05/20 11:30:48;;;;;;;7.82;5.22;;;22.70;74.40;;;;;;5097602;28;20023;-71
2023/05/20 11:33:15;;;;;;;6.70;4.72;;;22.70;74.30;;;;;;5079319;28;20049;-71
2023/05/20 11:35:50;;;;;;;7.95;5.18;;;23.10;74.80;;;;;;5078199;28;20055;-71
2023/05/20 11:38:16;;;;;;;10.48;6.53;;;23.40;74.00;;;;;;5081519;28;20032;-71
2023/05/20 11:40:44;;;;;;;8.68;6.60;;;23.20;74.30;;;;;;5076227;28;20021;-71
2023/05/20 11:43:12;;;;;;;10.45;6.75;;;23.60;73.40;;;;;;5078242;28;20105;-71
2023/05/20 11:45:47;;;;;;;9.68;6.07;;;23.50;74.60;;;;;;5078590;28;20432;-73
2023/05/20 11:48:14;;;;;;;7.50;5.60;;;23.70;74.40;;;;;;5098371;28;20032;-72
2023/05/20 11:50:42;;;;;;;8.43;6.13;;;24.20;72.10;;;;;;5097620;28;20061;-72
2023/05/20 11:53:10;;;;;;;14.38;5.75;;;23.80;73.70;;;;;;5078445;28;20078;-72
2023/05/20 11:55:48;;;;;;;8.30;4.82;;;24.10;72.00;;;;;;5076865;28;20099;-72
2023/05/20 11:58:22;;;;;;;9.65;5.05;;;23.90;72.30;;;;;;5077836;28;20024;-72
2023/05/20 12:00:48;;;;;;;8.57;5.18;;;23.60;74.00;;;;;;5077947;28;20032;-71
2023/05/20 12:03:14;;;;;;;8.90;5.53;;;23.30;74.60;;;;;;5060013;28;20037;-72
2023/05/20 12:05:40;;;;;;;6.97;5.00;;;23.60;75.60;;;;;;5079071;28;20054;-71
2023/05/20 12:08:06;;;;;;;7.20;4.70;;;24.20;72.20;;;;;;5080032;28;20027;-72
2023/05/20 12:10:32;;;;;;;9.20;5.45;;;24.70;71.70;;;;;;5078873;28;20055;-71
2023/05/20 12:12:58;;;;;;;9.07;6.13;;;24.70;71.30;;;;;;5097862;28;20027;-72
2023/05/20 12:15:24;;;;;;;8.10;5.22;;;23.90;72.70;;;;;;5097859;28;20028;-73
2023/05/20 12:17:51;;;;;;;9.98;5.82;;;23.60;74.20;;;;;;5097661;28;20024;-72
2023/05/20 12:20:20;;;;;;;7.60;5.35;;;23.00;73.70;;;;;;5096904;28;20028;-72
2023/05/20 12:22:45;;;;;;;7.38;5.25;;;22.60;76.10;;;;;;5097588;28;20428;-72
2023/05/20 12:25:13;;;;;;;6.78;4.63;;;22.20;76.50;;;;;;5096411;28;20085;-72
2023/05/20 12:27:39;;;;;;;7.82;5.53;;;22.70;76.40;;;;;;5097512;28;20058;-72
2023/05/20 12:30:06;;;;;;;6.72;4.65;;;23.70;74.60;;;;;;5097500;28;20024;-72
2023/05/20 12:32:31;;;;;;;6.30;4.75;;;24.30;71.90;;;;;;5097337;28;20040;-72
2023/05/20 12:34:57;;;;;;;8.95;4.95;;;24.90;70.80;;;;;;5096502;28;20064;-72
2023/05/20 12:37:23;;;;;;;7.35;3.90;;;25.60;70.30;;;;;;5097175;28;20079;-72
2023/05/20 12:39:48;;;;;;;6.93;4.15;;;25.70;69.80;;;;;;5096282;28;20317;-72